createdAt,value
2022-10-28T00:02:51.780Z,982.47
2022-10-28T00:08:22.417Z,982.32
2022-10-28T00:13:54.422Z,982.43
2022-10-28T00:19:30.306Z,982.76
2022-10-28T00:25:02.298Z,982.47
2022-10-28T00:30:33.912Z,982.32
2022-10-28T00:36:05.397Z,982.56
2022-10-28T00:41:37.533Z,982.64
2022-10-28T00:47:08.841Z,982.3
2022-10-28T00:52:40.576Z,982.7
2022-10-28T00:58:12.313Z,982.26
2022-10-28T01:03:43.970Z,982.7
2022-10-28T01:09:15.930Z,982.72
2022-10-28T01:14:47.761Z,982.84
2022-10-28T01:20:24.142Z,982.87
2022-10-28T01:25:55.641Z,982.61
2022-10-28T01:31:27.293Z,982.53
2022-10-28T01:36:59.237Z,982.89
2022-10-28T01:42:30.691Z,982.59
2022-10-28T01:48:02.647Z,982.55
2022-10-28T01:53:34.625Z,982.53
2022-10-28T01:59:05.868Z,982.33
2022-10-28T02:04:37.792Z,982.26
2022-10-28T02:10:09.334Z,982.18
2022-10-28T02:15:41.332Z,982.51
2022-10-28T02:21:16.946Z,982.41
2022-10-28T02:26:48.722Z,982.2
2022-10-28T02:32:21.022Z,982.27
2022-10-28T02:37:52.110Z,982.23
2022-10-28T02:43:23.886Z,982.3
2022-10-28T02:48:55.870Z,982.23
2022-10-28T02:54:27.395Z,982.44
2022-10-28T02:59:59.027Z,982.55
2022-10-28T03:05:31.582Z,982.54
2022-10-28T03:11:02.653Z,982.71
2022-10-28T03:16:34.196Z,982.75
2022-10-28T03:22:10.358Z,982.81
2022-10-28T03:27:42.170Z,982.95
2022-10-28T03:33:14.058Z,983.2
2022-10-28T03:38:45.810Z,983.43
2022-10-28T03:44:17.432Z,983.53
2022-10-28T03:49:49.179Z,983.18
2022-10-28T03:55:20.960Z,982.68
2022-10-28T04:00:52.697Z,982.1
2022-10-28T04:06:24.265Z,982.38
2022-10-28T04:11:56.075Z,982.66
2022-10-28T04:17:27.807Z,982.43
2022-10-28T04:23:05.202Z,982.34
2022-10-28T04:28:35.597Z,982.37
2022-10-28T04:34:07.306Z,982.22
2022-10-28T04:39:39.034Z,982.57
2022-10-28T04:45:11.091Z,982.63
2022-10-28T04:50:42.506Z,982.97
2022-10-28T04:56:14.247Z,983.14
2022-10-28T05:01:46.146Z,982.98
2022-10-28T05:07:23.939Z,983.04
2022-10-28T05:12:49.278Z,982.41
2022-10-28T05:18:21.179Z,982.42
2022-10-28T05:23:59.042Z,982.43
2022-10-28T05:29:34.130Z,982.49
2022-10-28T05:35:02.634Z,982.87
2022-10-28T05:40:34.162Z,982.74
2022-10-28T05:46:06.394Z,982.59
2022-10-28T05:51:37.710Z,982.66
2022-10-28T05:57:09.498Z,982.94
2022-10-28T06:02:41.162Z,983.0
2022-10-28T06:08:13.193Z,982.99
2022-10-28T06:13:43.220Z,982.98
2022-10-28T06:19:14.833Z,983.01
2022-10-28T06:24:51.098Z,983.13
2022-10-28T06:30:22.893Z,983.23
2022-10-28T06:35:54.225Z,983.53
2022-10-28T06:41:26.163Z,983.47
2022-10-28T06:46:59.231Z,983.29
2022-10-28T06:52:31.116Z,983.44
2022-10-28T06:58:02.797Z,983.4
2022-10-28T07:03:34.541Z,983.61
2022-10-28T07:09:06.156Z,983.63
2022-10-28T07:14:38.076Z,983.89
2022-10-28T07:20:10.483Z,984.58
2022-10-28T07:25:45.979Z,984.77
2022-10-28T07:31:17.580Z,984.47
2022-10-28T07:36:49.495Z,984.54
2022-10-28T07:42:21.003Z,984.73
2022-10-28T07:47:52.947Z,984.73
2022-10-28T07:53:29.344Z,984.78
2022-10-28T07:58:56.264Z,984.65
2022-10-28T08:04:27.748Z,984.79
2022-10-28T08:09:59.801Z,984.86
2022-10-28T08:15:31.338Z,984.62
2022-10-28T08:21:03.134Z,984.96
2022-10-28T08:26:39.347Z,985.13
2022-10-28T08:32:11.481Z,984.75
2022-10-28T08:37:42.642Z,984.93
2022-10-28T08:43:14.330Z,984.47
2022-10-28T08:48:46.274Z,984.75
2022-10-28T08:54:17.777Z,985.3
2022-10-28T08:59:49.654Z,985.58
2022-10-28T09:05:21.769Z,985.92
2022-10-28T09:10:52.921Z,985.78
2022-10-28T09:16:24.658Z,985.98
2022-10-28T09:21:56.361Z,984.83
2022-10-28T09:27:32.562Z,984.22
2022-10-28T09:33:04.245Z,984.11
2022-10-28T09:38:35.950Z,984.22
2022-10-28T09:44:07.937Z,984.43
2022-10-28T09:49:40.443Z,985.65
2022-10-28T09:55:11.212Z,985.67
2022-10-28T10:00:42.940Z,985.52
2022-10-28T10:06:14.599Z,985.76
2022-10-28T10:11:46.667Z,986.12
2022-10-28T10:17:18.148Z,986.2
2022-10-28T10:22:50.089Z,986.45
2022-10-28T10:28:27.959Z,986.33
2022-10-28T10:34:00.043Z,985.28
2022-10-28T10:39:31.800Z,985.61
2022-10-28T10:45:03.324Z,985.66
2022-10-28T10:50:34.934Z,985.9
2022-10-28T10:56:06.644Z,986.12
2022-10-28T11:01:38.997Z,986.62
2022-10-28T11:07:10.581Z,986.26
2022-10-28T11:12:42.024Z,985.7
2022-10-28T11:18:13.783Z,985.74
2022-10-28T11:23:46.459Z,985.87
2022-10-28T11:29:21.640Z,985.76
2022-10-28T11:34:53.536Z,986.06
2022-10-28T11:40:25.334Z,985.68
2022-10-28T11:45:56.882Z,985.56
2022-10-28T11:51:28.835Z,985.19
2022-10-28T11:57:00.962Z,985.22
2022-10-28T12:02:32.237Z,985.76
2022-10-28T12:08:04.241Z,985.61
2022-10-28T12:13:35.593Z,985.14
2022-10-28T12:19:07.604Z,985.5
2022-10-28T12:24:39.507Z,986.03
2022-10-28T12:30:15.504Z,986.16
2022-10-28T12:35:47.026Z,985.96
2022-10-28T12:41:18.741Z,986.12
2022-10-28T12:46:50.457Z,986.02
2022-10-28T12:52:22.267Z,986.25
2022-10-28T12:57:55.038Z,986.34
2022-10-28T13:03:25.742Z,985.98
2022-10-28T13:08:57.597Z,986.09
2022-10-28T13:14:28.984Z,985.98
2022-10-28T13:20:00.881Z,985.76
2022-10-28T13:25:32.537Z,985.97
2022-10-28T13:31:08.767Z,985.79
2022-10-28T13:36:40.463Z,985.8
2022-10-28T13:42:12.147Z,985.63
2022-10-28T13:47:43.822Z,985.52
2022-10-28T13:53:15.771Z,985.26
2022-10-28T13:58:47.454Z,985.23
2022-10-28T14:04:19.186Z,985.15
2022-10-28T14:09:50.741Z,985.0
2022-10-28T14:15:22.671Z,984.88
2022-10-28T14:20:54.114Z,984.98
2022-10-28T14:26:26.128Z,984.67
2022-10-28T14:32:02.242Z,984.6
2022-10-28T14:37:33.897Z,984.54
2022-10-28T14:43:05.746Z,984.54
2022-10-28T14:48:37.152Z,984.6
2022-10-28T14:54:09.145Z,984.39
2022-10-28T14:59:40.657Z,984.33
2022-10-28T15:05:12.300Z,984.11
2022-10-28T15:10:46.259Z,983.9
2022-10-28T15:16:15.759Z,983.82
2022-10-28T15:21:47.743Z,983.66
2022-10-28T15:27:19.838Z,983.56
2022-10-28T15:32:55.481Z,983.36
2022-10-28T15:38:27.214Z,983.42
2022-10-28T15:43:58.711Z,983.52
2022-10-28T15:49:31.105Z,983.44
2022-10-28T15:55:02.365Z,983.32
2022-10-28T16:00:33.850Z,983.29
2022-10-28T16:06:05.826Z,983.32
2022-10-28T16:11:38.025Z,983.49
2022-10-28T16:17:09.142Z,983.29
2022-10-28T16:22:41.349Z,983.11
2022-10-28T16:28:12.678Z,983.22
2022-10-28T16:33:49.119Z,983.18
2022-10-28T16:39:20.788Z,983.08
2022-10-28T16:44:52.233Z,983.39
2022-10-28T16:50:24.096Z,983.56
2022-10-28T16:55:56.110Z,983.47
2022-10-28T17:01:27.649Z,983.65
2022-10-28T17:06:59.260Z,983.28
2022-10-28T17:12:30.909Z,983.22
2022-10-28T17:18:02.512Z,982.9
2022-10-28T17:23:34.913Z,982.75
2022-10-28T17:29:05.961Z,982.43
2022-10-28T17:34:42.048Z,982.53
2022-10-28T17:40:13.704Z,982.54
2022-10-28T17:45:45.544Z,982.56
2022-10-28T17:51:17.852Z,982.61
2022-10-28T17:56:48.941Z,982.57
2022-10-28T18:02:21.125Z,982.29
2022-10-28T18:07:53.548Z,981.98
2022-10-28T18:13:24.390Z,982.07
2022-10-28T18:18:55.949Z,981.99
2022-10-28T18:24:27.663Z,982.17
2022-10-28T18:29:59.401Z,982.32
2022-10-28T18:35:35.855Z,982.03
2022-10-28T18:41:07.182Z,982.41
2022-10-28T18:46:38.863Z,982.61
2022-10-28T18:52:10.633Z,982.65
2022-10-28T18:57:42.570Z,982.61
2022-10-28T19:03:14.126Z,982.48
2022-10-28T19:08:46.643Z,982.52
2022-10-28T19:14:17.687Z,982.67
2022-10-28T19:19:49.377Z,982.73
2022-10-28T19:25:20.973Z,982.66
2022-10-28T19:30:52.640Z,982.33
2022-10-28T19:36:28.827Z,982.22
2022-10-28T19:42:00.646Z,981.84
2022-10-28T19:47:32.647Z,981.84
2022-10-28T19:53:04.055Z,981.78
2022-10-28T19:58:35.671Z,981.72
2022-10-28T20:04:07.858Z,981.81
2022-10-28T20:09:39.178Z,981.75
2022-10-28T20:15:10.966Z,981.81
2022-10-28T20:20:42.735Z,981.95
2022-10-28T20:26:14.497Z,981.79
2022-10-28T20:31:46.082Z,981.79
2022-10-28T20:37:22.529Z,981.71
2022-10-28T20:42:54.883Z,981.86
2022-10-28T20:48:25.775Z,981.95
2022-10-28T20:53:57.351Z,981.93
2022-10-28T20:59:29.927Z,982.03
2022-10-28T21:05:00.889Z,982.15
2022-10-28T21:10:32.604Z,982.12
2022-10-28T21:16:04.204Z,982.06
2022-10-28T21:21:35.915Z,982.04
2022-10-28T21:27:07.727Z,982.19
2022-10-28T21:32:39.658Z,982.35
2022-10-28T21:38:15.515Z,982.3
2022-10-28T21:43:47.255Z,981.72
2022-10-28T21:49:18.946Z,982.03
2022-10-28T21:54:50.643Z,982.1
2022-10-28T22:00:22.563Z,982.15
2022-10-28T22:05:54.399Z,982.11
2022-10-28T22:11:25.967Z,982.08
2022-10-28T22:16:58.840Z,982.14
2022-10-28T22:22:29.308Z,982.33
2022-10-28T22:28:01.358Z,982.5
2022-10-28T22:33:33.022Z,982.57
2022-10-28T22:39:09.791Z,982.34
2022-10-28T22:44:40.710Z,982.58
2022-10-28T22:50:12.385Z,982.54
2022-10-28T22:55:44.093Z,982.39
2022-10-28T23:01:16.354Z,982.82
2022-10-28T23:06:47.547Z,983.09
2022-10-28T23:12:19.516Z,983.02
2022-10-28T23:17:51.173Z,982.94
2022-10-28T23:23:23.306Z,982.99
2022-10-28T23:28:54.501Z,982.9
2022-10-28T23:34:26.041Z,982.83
2022-10-28T23:40:02.629Z,982.71
2022-10-28T23:45:34.844Z,982.64
2022-10-28T23:51:05.730Z,982.48
2022-10-28T23:56:37.774Z,982.19
